Time;durP1;ratioP1;P1;durP2;ratioP2;P2;SDS_P1;SDS_P2;PMS_P1;PMS_P2;Temp;Humidity;BMP_temperature;BMP_pressure;BME280_temperature;BME280_humidity;BME280_pressure;Samples;Min_cycle;Max_cycle;Signal;HPM_P1;HPM_P2
2022/03/03 00:01:54;;;;;;;12.65;6.38;;;0.60;83.90;;;;;;5046844;28;20029;-80
2022/03/03 00:04:20;;;;;;;11.80;6.07;;;0.70;84.30;;;;;;5047400;28;20029;-80
2022/03/03 00:06:46;;;;;;;12.48;7.03;;;0.60;84.70;;;;;;5043623;28;20022;-80
2022/03/03 00:09:12;;;;;;;14.05;8.18;;;0.60;85.20;;;;;;5029915;28;20026;-80
2022/03/03 00:11:38;;;;;;;14.70;8.07;;;0.60;85.60;;;;;;5048292;28;20438;-80
2022/03/03 00:14:04;;;;;;;11.68;7.75;;;0.60;86.20;;;;;;5032814;28;20423;-80
2022/03/03 00:16:30;;;;;;;13.07;7.30;;;0.60;86.20;;;;;;5035546;28;20089;-80
2022/03/03 00:18:56;;;;;;;14.18;7.80;;;0.60;86.10;;;;;;5046490;28;20036;-79
2022/03/03 00:21:22;;;;;;;12.70;7.70;;;0.60;86.10;;;;;;5053519;28;20021;-80
2022/03/03 00:23:48;;;;;;;11.57;7.45;;;0.60;86.70;;;;;;5070626;28;20079;-80
2022/03/03 00:26:14;;;;;;;13.10;7.30;;;0.50;86.20;;;;;;5054979;28;20029;-79
2022/03/03 00:28:40;;;;;;;12.68;7.57;;;0.60;86.10;;;;;;5074867;28;20021;-80
2022/03/03 00:31:07;;;;;;;12.02;7.28;;;0.60;86.20;;;;;;5058309;28;20013;-80
2022/03/03 00:33:33;;;;;;;12.40;7.40;;;0.60;86.40;;;;;;5075043;28;20116;-79
2022/03/03 00:35:59;;;;;;;12.45;7.40;;;0.60;86.40;;;;;;5075197;28;20025;-79
2022/03/03 00:38:24;;;;;;;13.05;6.97;;;0.50;86.40;;;;;;5057169;28;20053;-79
2022/03/03 00:40:50;;;;;;;14.15;8.45;;;0.50;86.60;;;;;;5065765;28;20422;-80
2022/03/03 00:43:16;;;;;;;16.30;8.35;;;0.50;86.90;;;;;;5044957;28;20041;-79
2022/03/03 00:45:42;;;;;;;14.40;8.25;;;0.50;87.10;;;;;;5023187;28;20398;-80
2022/03/03 00:48:08;;;;;;;16.00;7.88;;;0.50;87.20;;;;;;5031565;28;20025;-80
2022/03/03 00:50:34;;;;;;;14.93;7.93;;;0.40;87.20;;;;;;5056376;28;20021;-80
2022/03/03 00:53:00;;;;;;;18.83;8.65;;;0.40;87.20;;;;;;5061322;28;20530;-81
2022/03/03 00:55:26;;;;;;;16.83;8.48;;;0.40;87.10;;;;;;5061006;28;20045;-81
2022/03/03 00:57:52;;;;;;;16.60;7.78;;;0.40;87.00;;;;;;5060224;28;20094;-80
2022/03/03 01:00:21;;;;;;;14.65;7.90;;;0.40;87.10;;;;;;5061606;28;20470;-80
2022/03/03 01:02:48;;;;;;;14.27;7.97;;;0.40;87.00;;;;;;5046032;28;20030;-81
2022/03/03 01:05:14;;;;;;;12.25;6.95;;;0.40;86.80;;;;;;5040825;28;20285;-81
2022/03/03 01:07:40;;;;;;;12.85;7.25;;;0.30;86.70;;;;;;5022863;28;20025;-80
2022/03/03 01:10:08;;;;;;;14.02;6.93;;;0.30;86.70;;;;;;5040025;28;20017;-80
2022/03/03 01:12:34;;;;;;;13.02;7.70;;;0.30;86.70;;;;;;5040440;28;20037;-81
2022/03/03 01:15:00;;;;;;;13.07;7.28;;;0.30;87.00;;;;;;5040485;28;20018;-79
2022/03/03 01:17:26;;;;;;;13.52;7.60;;;0.30;87.30;;;;;;5049080;28;20029;-80
2022/03/03 01:19:52;;;;;;;16.02;7.75;;;0.30;87.70;;;;;;5053856;28;20029;-81
2022/03/03 01:22:17;;;;;;;14.63;7.85;;;0.30;87.80;;;;;;5041890;28;20032;-80
2022/03/03 01:24:45;;;;;;;16.23;7.47;;;0.30;87.80;;;;;;5060078;28;20033;-80
2022/03/03 01:27:11;;;;;;;12.02;7.45;;;0.20;88.10;;;;;;5060221;28;20049;-80
2022/03/03 01:29:37;;;;;;;14.52;8.18;;;0.20;88.30;;;;;;5059022;28;20146;-80
2022/03/03 01:32:03;;;;;;;14.45;7.97;;;0.20;88.60;;;;;;5059361;28;20111;-80
2022/03/03 01:34:29;;;;;;;12.52;7.32;;;0.20;88.80;;;;;;5059683;28;20120;-79
2022/03/03 01:36:54;;;;;;;12.55;7.65;;;0.20;89.80;;;;;;5041698;28;20063;-80
2022/03/03 01:39:20;;;;;;;13.52;7.45;;;0.20;89.30;;;;;;5059735;28;20115;-80
2022/03/03 01:41:46;;;;;;;11.75;7.13;;;0.20;89.40;;;;;;5041290;28;20031;-80
2022/03/03 01:44:12;;;;;;;10.80;7.13;;;0.10;89.50;;;;;;5041366;28;20049;-80
2022/03/03 01:46:58;;;;;;;11.05;6.45;;;0.10;89.60;;;;;;5036361;28;20028;-80
2022/03/03 01:49:26;;;;;;;12.05;7.20;;;0.10;89.80;;;;;;5049849;28;20033;-80
2022/03/03 01:51:53;;;;;;;12.40;7.00;;;0.10;90.10;;;;;;5058863;28;20120;-80
2022/03/03 01:54:19;;;;;;;10.15;6.40;;;0.10;90.20;;;;;;5059651;28;20492;-80
2022/03/03 01:56:46;;;;;;;13.88;8.05;;;0.10;90.20;;;;;;5056205;28;20025;-80
2022/03/03 01:59:13;;;;;;;13.27;7.53;;;0.10;90.30;;;;;;5040025;28;20056;-80
2022/03/03 02:01:40;;;;;;;14.32;7.93;;;0.10;90.20;;;;;;5040103;28;20030;-79
2022/03/03 02:04:07;;;;;;;13.18;7.70;;;0.10;90.20;;;;;;5021764;28;20021;-79
2022/03/03 02:06:33;;;;;;;12.40;6.82;;;0.00;90.10;;;;;;5040502;28;20509;-80
2022/03/03 02:08:59;;;;;;;12.68;7.90;;;0.00;90.00;;;;;;5022977;28;20085;-80
2022/03/03 02:11:26;;;;;;;13.25;8.13;;;0.00;90.00;;;;;;5044602;28;20022;-79
2022/03/03 02:13:51;;;;;;;11.30;7.20;;;-0.10;90.00;;;;;;5043121;28;20088;-80
2022/03/03 02:16:17;;;;;;;13.60;7.38;;;-0.10;90.00;;;;;;5025250;28;20504;-80
2022/03/03 02:18:44;;;;;;;13.80;7.07;;;-0.10;90.00;;;;;;5053885;28;20059;-79
2022/03/03 02:21:15;;;;;;;14.38;7.53;;;-0.10;89.70;;;;;;5044772;28;20029;-79
2022/03/03 02:23:41;;;;;;;14.57;7.72;;;-0.10;89.50;;;;;;5063167;28;20116;-79
2022/03/03 02:26:15;;;;;;;11.95;7.28;;;-0.20;89.10;;;;;;5063637;28;20445;-79
2022/03/03 02:28:42;;;;;;;10.45;6.38;;;-0.10;89.20;;;;;;5063938;28;20025;-79
2022/03/03 02:31:08;;;;;;;11.80;6.82;;;-0.10;88.90;;;;;;5045763;28;20544;-79
2022/03/03 02:33:34;;;;;;;12.13;6.82;;;-0.20;88.50;;;;;;5045954;28;20057;-79
2022/03/03 02:36:19;;;;;;;11.35;7.25;;;-0.20;88.40;;;;;;5063014;28;20453;-79
2022/03/03 02:38:46;;;;;;;12.88;7.32;;;-0.20;88.50;;;;;;5064842;28;20136;-80
2022/03/03 02:41:12;;;;;;;10.43;6.63;;;-0.20;88.40;;;;;;5046746;28;20447;-79
2022/03/03 02:43:37;;;;;;;10.25;6.97;;;-0.20;88.10;;;;;;5045377;28;20385;-79
2022/03/03 02:46:06;;;;;;;10.88;6.57;;;-0.20;88.20;;;;;;5042439;28;20031;-81
2022/03/03 02:48:32;;;;;;;11.23;7.53;;;-0.20;88.40;;;;;;5022159;28;20030;-81
2022/03/03 02:50:58;;;;;;;12.50;6.80;;;-0.20;88.60;;;;;;5027101;28;20034;-81
2022/03/03 02:53:24;;;;;;;10.52;7.00;;;-0.30;89.00;;;;;;5045476;28;20057;-81
2022/03/03 02:55:50;;;;;;;12.00;6.68;;;-0.30;89.60;;;;;;5045326;28;20017;-81
2022/03/03 02:58:15;;;;;;;10.50;6.13;;;-0.30;90.00;;;;;;5040494;28;20030;-80
2022/03/03 03:00:46;;;;;;;10.73;6.88;;;-0.30;90.10;;;;;;5051810;28;20497;-80
2022/03/03 03:03:13;;;;;;;13.38;7.00;;;-0.30;90.30;;;;;;5059530;28;20025;-79
2022/03/03 03:05:39;;;;;;;12.48;6.60;;;-0.30;90.30;;;;;;5055777;28;20028;-79
2022/03/03 03:08:05;;;;;;;12.63;7.63;;;-0.30;90.30;;;;;;5054421;28;20029;-80
2022/03/03 03:10:31;;;;;;;14.20;7.30;;;-0.30;90.20;;;;;;5055213;28;20059;-79
2022/03/03 03:12:57;;;;;;;13.15;7.47;;;-0.30;90.20;;;;;;5042468;28;20038;-79
2022/03/03 03:15:23;;;;;;;10.05;6.55;;;-0.40;90.10;;;;;;5056431;28;20101;-80
2022/03/03 03:17:50;;;;;;;11.90;6.75;;;-0.40;90.10;;;;;;5049805;28;20025;-81
2022/03/03 03:20:16;;;;;;;11.43;7.18;;;-0.40;90.20;;;;;;5056747;28;20033;-80
2022/03/03 03:22:41;;;;;;;9.68;5.97;;;-0.30;90.20;;;;;;5061658;28;20497;-81
2022/03/03 03:25:09;;;;;;;8.55;6.32;;;-0.40;90.10;;;;;;5060692;28;20093;-81
2022/03/03 03:27:36;;;;;;;12.05;6.70;;;-0.30;90.20;;;;;;5062332;28;20033;-81
2022/03/03 03:30:03;;;;;;;9.98;6.43;;;-0.30;90.10;;;;;;5061912;28;20021;-81
2022/03/03 03:32:29;;;;;;;12.07;6.13;;;-0.40;90.00;;;;;;5062542;28;20021;-81
2022/03/03 03:34:55;;;;;;;10.55;6.53;;;-0.40;90.00;;;;;;5062396;28;20437;-80
2022/03/03 03:37:21;;;;;;;12.73;6.78;;;-0.50;90.10;;;;;;5062365;28;20021;-79
2022/03/03 03:39:47;;;;;;;9.82;6.35;;;-0.50;90.30;;;;;;5062208;28;20336;-80
2022/03/03 03:42:12;;;;;;;11.57;6.68;;;-0.50;90.50;;;;;;5044866;28;20442;-80
2022/03/03 03:44:38;;;;;;;15.82;6.78;;;-0.50;90.70;;;;;;5044247;28;20033;-80
2022/03/03 03:47:06;;;;;;;10.70;6.85;;;-0.50;90.80;;;;;;5037385;28;20211;-78
2022/03/03 03:49:33;;;;;;;14.27;6.70;;;-0.60;90.90;;;;;;5052779;28;20021;-80
2022/03/03 03:51:58;;;;;;;14.60;7.45;;;-0.60;90.90;;;;;;5043881;28;20021;-79
2022/03/03 03:54:24;;;;;;;12.10;7.22;;;-0.70;91.00;;;;;;5061996;28;20074;-79
2022/03/03 03:56:50;;;;;;;12.30;6.63;;;-0.70;91.10;;;;;;5062240;28;20029;-79
2022/03/03 03:59:15;;;;;;;14.23;7.13;;;-0.70;91.30;;;;;;5061295;28;20025;-79
2022/03/03 04:01:41;;;;;;;13.27;7.13;;;-0.60;91.30;;;;;;5062315;28;20367;-79
2022/03/03 04:04:07;;;;;;;11.27;6.40;;;-0.60;91.30;;;;;;5042990;28;20033;-79
2022/03/03 04:06:33;;;;;;;11.50;6.95;;;-0.60;91.30;;;;;;5059499;28;20029;-79
2022/03/03 04:08:59;;;;;;;11.27;6.93;;;-0.70;91.10;;;;;;5044936;28;20470;-79
2022/03/03 04:11:24;;;;;;;12.07;6.70;;;-0.70;91.00;;;;;;5027775;28;20036;-79
2022/03/03 04:13:50;;;;;;;14.52;7.00;;;-0.70;91.00;;;;;;5048430;28;20073;-79
2022/03/03 04:16:16;;;;;;;11.95;7.07;;;-0.80;91.00;;;;;;5041123;28;20041;-82
2022/03/03 04:18:42;;;;;;;11.18;6.60;;;-0.90;91.10;;;;;;5046722;28;20025;-81
2022/03/03 04:21:08;;;;;;;10.18;7.13;;;-0.90;91.10;;;;;;5041068;28;20052;-82
2022/03/03 04:23:34;;;;;;;12.65;7.53;;;-0.90;91.20;;;;;;5031083;28;20021;-81
2022/03/03 04:26:00;;;;;;;14.23;7.22;;;-1.00;91.10;;;;;;5050662;28;20071;-82
2022/03/03 04:28:26;;;;;;;11.25;6.28;;;-1.00;91.10;;;;;;5029750;28;20142;-82
2022/03/03 04:30:51;;;;;;;12.18;7.47;;;-0.90;91.10;;;;;;5032936;28;20088;-82
2022/03/03 04:33:17;;;;;;;14.40;7.30;;;-1.00;91.10;;;;;;5036473;28;20033;-81
2022/03/03 04:35:43;;;;;;;13.43;7.30;;;-1.00;91.10;;;;;;5030942;28;20029;-80
2022/03/03 04:38:09;;;;;;;12.10;6.85;;;-1.00;91.20;;;;;;5038675;28;20029;-81
2022/03/03 04:40:35;;;;;;;14.73;7.75;;;-1.00;91.10;;;;;;5037194;28;20056;-81
2022/03/03 04:43:01;;;;;;;11.18;6.82;;;-1.10;91.10;;;;;;5021182;28;20034;-81
2022/03/03 04:45:27;;;;;;;10.50;6.57;;;-1.10;91.20;;;;;;5038672;28;20113;-82
2022/03/03 04:47:52;;;;;;;11.32;6.55;;;-1.00;91.20;;;;;;5045132;28;20025;-82
2022/03/03 04:50:18;;;;;;;10.80;6.22;;;-1.00;91.10;;;;;;5054730;28;20468;-80
2022/03/03 04:52:44;;;;;;;12.57;6.50;;;-1.00;91.00;;;;;;5057809;28;20017;-82
2022/03/03 04:55:10;;;;;;;11.90;6.30;;;-1.00;91.00;;;;;;5058539;28;20022;-82
2022/03/03 04:57:36;;;;;;;11.48;6.55;;;-0.90;91.00;;;;;;5040585;28;20040;-82
2022/03/03 05:00:04;;;;;;;9.90;6.10;;;-1.00;90.90;;;;;;5042548;28;20058;-84
2022/03/03 05:02:30;;;;;;;12.40;6.60;;;-1.00;90.90;;;;;;5041593;28;20028;-81
2022/03/03 05:04:56;;;;;;;10.88;6.63;;;-1.00;91.00;;;;;;5041026;28;20032;-83
2022/03/03 05:07:22;;;;;;;11.48;6.32;;;-1.00;90.90;;;;;;5057796;28;20029;-82
2022/03/03 05:09:48;;;;;;;9.90;6.03;;;-1.10;90.90;;;;;;5039583;28;20036;-82
2022/03/03 05:12:13;;;;;;;13.50;6.32;;;-1.10;91.10;;;;;;5037776;28;20035;-82
2022/03/03 05:14:39;;;;;;;12.52;6.13;;;-1.10;91.30;;;;;;5039699;28;20029;-82
2022/03/03 05:17:05;;;;;;;13.93;6.80;;;-1.10;91.30;;;;;;5053354;28;20170;-80
2022/03/03 05:19:31;;;;;;;10.95;7.10;;;-1.10;91.40;;;;;;5055207;28;20043;-80
2022/03/03 05:21:57;;;;;;;13.73;7.03;;;-1.10;91.40;;;;;;5066934;28;20029;-81
2022/03/03 05:24:23;;;;;;;12.05;6.38;;;-1.10;91.60;;;;;;5062197;28;20056;-79
2022/03/03 05:26:50;;;;;;;15.10;7.88;;;-1.10;91.60;;;;;;5057390;28;20025;-79
2022/03/03 05:29:16;;;;;;;12.63;7.10;;;-1.10;91.60;;;;;;5036099;28;20025;-80
2022/03/03 05:31:42;;;;;;;11.88;6.63;;;-1.10;91.70;;;;;;5034202;28;20022;-78
2022/03/03 05:34:08;;;;;;;11.40;6.38;;;-1.10;91.80;;;;;;5033643;28;20025;-77
2022/03/03 05:36:38;;;;;;;14.40;7.35;;;-1.20;91.90;;;;;;5017947;28;20088;-80
2022/03/03 05:39:05;;;;;;;13.93;7.10;;;-1.20;92.10;;;;;;5035322;28;20026;-82
2022/03/03 05:41:31;;;;;;;12.48;7.45;;;-1.20;92.20;;;;;;5031759;28;20029;-79
2022/03/03 05:43:58;;;;;;;16.10;7.75;;;-1.20;92.30;;;;;;5031410;28;20080;-77
2022/03/03 05:46:24;;;;;;;13.85;7.53;;;-1.20;92.30;;;;;;5041326;28;20044;-78
2022/03/03 05:48:50;;;;;;;12.60;7.38;;;-1.30;92.40;;;;;;5075757;28;20036;-78
2022/03/03 05:51:19;;;;;;;13.27;7.22;;;-1.30;92.50;;;;;;5073436;28;20040;-79
2022/03/03 05:53:45;;;;;;;15.77;8.30;;;-1.30;92.60;;;;;;5072643;28;20033;-80
2022/03/03 05:56:14;;;;;;;11.52;6.70;;;-1.30;92.60;;;;;;5068998;28;20052;-80
2022/03/03 05:58:44;;;;;;;12.55;7.65;;;-1.30;92.70;;;;;;5057951;28;20025;-78
2022/03/03 06:01:11;;;;;;;11.45;7.70;;;-1.20;92.70;;;;;;5041446;28;20021;-78
2022/03/03 06:03:37;;;;;;;13.80;7.82;;;-1.30;92.70;;;;;;5045122;28;20028;-81
2022/03/03 06:06:14;;;;;;;15.10;7.88;;;-1.20;92.80;;;;;;5042928;28;20038;-80
2022/03/03 06:08:46;;;;;;;14.10;8.15;;;-1.20;92.90;;;;;;5044240;28;20094;-80
2022/03/03 06:11:15;;;;;;;15.35;8.32;;;-1.20;92.90;;;;;;5064369;28;20029;-78
2022/03/03 06:13:46;;;;;;;15.90;7.82;;;-1.20;93.00;;;;;;5073241;28;20017;-78
2022/03/03 06:16:17;;;;;;;16.63;8.52;;;-1.10;93.10;;;;;;5059893;28;20030;-79
2022/03/03 06:18:48;;;;;;;15.23;8.50;;;-1.10;93.10;;;;;;5045919;28;20071;-79
2022/03/03 06:21:15;;;;;;;14.50;9.15;;;-1.10;93.10;;;;;;5066386;28;20029;-80
2022/03/03 06:23:41;;;;;;;14.35;8.73;;;-1.00;93.10;;;;;;5068819;28;20018;-80
2022/03/03 06:26:10;;;;;;;15.57;8.52;;;-1.00;93.10;;;;;;5045250;28;20095;-80
2022/03/03 06:28:37;;;;;;;15.93;8.27;;;-0.90;93.00;;;;;;5053020;28;20021;-78
2022/03/03 06:31:05;;;;;;;14.82;8.05;;;-0.90;92.90;;;;;;5044896;28;20052;-79
2022/03/03 06:33:30;;;;;;;16.85;8.57;;;-0.90;92.80;;;;;;5045811;28;20060;-79
2022/03/03 06:35:56;;;;;;;14.55;8.20;;;-0.80;92.90;;;;;;5027572;28;20490;-79
2022/03/03 06:38:23;;;;;;;17.13;8.18;;;-0.70;92.90;;;;;;5062732;28;20104;-79
2022/03/03 06:40:49;;;;;;;14.43;8.60;;;-0.60;92.80;;;;;;5062019;28;20047;-78
2022/03/03 06:43:15;;;;;;;20.15;10.30;;;-0.60;92.70;;;;;;5043190;28;20362;-80
2022/03/03 06:45:41;;;;;;;17.60;8.98;;;-0.60;92.60;;;;;;5063606;28;20032;-80
2022/03/03 06:48:07;;;;;;;21.73;9.98;;;-0.60;92.60;;;;;;5057746;28;20030;-79
2022/03/03 06:50:38;;;;;;;17.67;10.18;;;-0.50;92.70;;;;;;5024802;28;20021;-79
2022/03/03 06:53:07;;;;;;;20.05;9.50;;;-0.40;92.50;;;;;;5041536;28;20025;-79
2022/03/03 06:55:33;;;;;;;17.60;10.32;;;-0.30;92.40;;;;;;5022039;28;20048;-80
2022/03/03 06:58:00;;;;;;;18.83;9.30;;;-0.30;92.40;;;;;;5033182;28;20048;-80
2022/03/03 07:00:34;;;;;;;19.23;10.38;;;-0.20;92.40;;;;;;5026593;28;20036;-78
2022/03/03 07:03:01;;;;;;;23.33;11.07;;;-0.10;92.30;;;;;;5026109;28;20440;-78
2022/03/03 07:05:30;;;;;;;17.20;9.90;;;-0.10;92.20;;;;;;5026130;28;20060;-79
2022/03/03 07:07:57;;;;;;;21.00;10.80;;;0.10;91.90;;;;;;5044027;28;20558;-78
2022/03/03 07:10:25;;;;;;;23.15;10.60;;;0.10;91.70;;;;;;5028765;28;20021;-81
2022/03/03 07:12:57;;;;;;;19.13;10.15;;;0.20;91.50;;;;;;5026621;28;20017;-80
2022/03/03 07:15:27;;;;;;;;;;;0.30;91.30;;;;;;5043885;28;20049;-79
2022/03/03 07:18:02;;;;;;;19.13;9.73;;;0.40;91.00;;;;;;5052870;28;19927;-79
2022/03/03 07:20:40;;;;;;;16.25;10.05;;;0.50;90.80;;;;;;5053632;28;20127;-78
2022/03/03 07:23:35;;;;;;;18.45;9.27;;;0.70;90.60;;;;;;5048603;28;20079;-78
2022/03/03 07:26:01;;;;;;;16.80;9.18;;;0.80;90.20;;;;;;5039916;28;20029;-78
2022/03/03 07:28:29;;;;;;;18.17;8.48;;;0.90;89.90;;;;;;5033155;28;20045;-79
2022/03/03 07:30:58;;;;;;;16.55;8.45;;;1.10;89.00;;;;;;5058864;28;20050;-80
2022/03/03 07:33:52;;;;;;;12.57;8.30;;;1.20;87.10;;;;;;5060006;28;20017;-79
2022/03/03 07:36:24;;;;;;;17.02;8.75;;;1.30;86.00;;;;;;5059952;28;20115;-78
2022/03/03 07:38:59;;;;;;;14.93;8.23;;;1.30;85.20;;;;;;5061868;28;20017;-80
2022/03/03 07:41:28;;;;;;;13.52;7.93;;;1.50;84.40;;;;;;5044120;28;20029;-80
2022/03/03 07:43:55;;;;;;;16.40;8.65;;;1.60;83.70;;;;;;5063287;28;20033;-80
2022/03/03 07:46:22;;;;;;;10.88;6.65;;;1.70;83.20;;;;;;5063468;28;20462;-80
2022/03/03 07:48:50;;;;;;;13.00;7.30;;;1.90;82.60;;;;;;5042433;28;20112;-78
2022/03/03 07:51:16;;;;;;;13.25;6.93;;;2.10;81.50;;;;;;5031340;28;20121;-79
2022/03/03 07:53:43;;;;;;;10.95;6.30;;;2.20;80.90;;;;;;5042008;28;20026;-79
2022/03/03 07:56:12;;;;;;;9.98;7.15;;;2.20;79.90;;;;;;5019529;28;20030;-80
2022/03/03 07:58:44;;;;;;;11.25;6.85;;;2.40;79.60;;;;;;5023503;28;20053;-81
2022/03/03 08:01:14;;;;;;;9.98;6.75;;;2.60;78.70;;;;;;5041518;28;20036;-81
2022/03/03 08:03:45;;;;;;;10.48;6.75;;;2.70;77.40;;;;;;5041389;28;20025;-81
2022/03/03 08:06:13;;;;;;;10.05;6.25;;;3.00;77.00;;;;;;5040988;28;20025;-79
2022/03/03 08:08:39;;;;;;;10.70;6.13;;;3.30;76.40;;;;;;5040944;28;20021;-80
2022/03/03 08:11:07;;;;;;;11.05;6.47;;;3.50;75.30;;;;;;5041635;28;20029;-80
2022/03/03 08:13:34;;;;;;;13.52;7.03;;;3.60;74.10;;;;;;5040933;28;20155;-79
2022/03/03 08:16:03;;;;;;;13.48;7.07;;;3.70;73.10;;;;;;5040615;28;20056;-81
2022/03/03 08:18:32;;;;;;;19.50;8.32;;;3.80;72.60;;;;;;5044293;28;20043;-79
2022/03/03 08:21:03;;;;;;;19.95;8.50;;;4.10;72.10;;;;;;5042375;28;20053;-79
2022/03/03 08:23:30;;;;;;;13.38;8.07;;;4.20;71.60;;;;;;5036719;28;20026;-79
2022/03/03 08:25:58;;;;;;;19.95;9.90;;;4.30;71.20;;;;;;5037303;28;20051;-78
2022/03/03 08:28:25;;;;;;;18.58;9.20;;;4.50;70.20;;;;;;5036188;28;20043;-79
2022/03/03 08:31:16;;;;;;;18.95;9.93;;;4.60;70.00;;;;;;5036715;28;20370;-78
2022/03/03 08:33:59;;;;;;;13.77;9.70;;;4.70;70.60;;;;;;5022836;28;20041;-79
2022/03/03 08:36:35;;;;;;;12.98;8.25;;;4.80;70.30;;;;;;5043096;28;20029;-81
2022/03/03 08:39:07;;;;;;;12.88;8.90;;;5.10;70.80;;;;;;5042453;28;20029;-81
2022/03/03 08:41:37;;;;;;;14.68;9.23;;;5.50;70.40;;;;;;5041489;28;20093;-81
2022/03/03 08:44:07;;;;;;;17.33;10.27;;;5.80;69.10;;;;;;5044454;28;20033;-81
2022/03/03 08:46:35;;;;;;;19.42;10.35;;;5.90;66.80;;;;;;5042742;28;20121;-80
2022/03/03 08:49:05;;;;;;;17.75;10.07;;;6.00;66.20;;;;;;5042605;28;20022;-81
2022/03/03 08:51:32;;;;;;;15.32;10.75;;;6.20;65.90;;;;;;5046241;28;20135;-80
2022/03/03 08:53:58;;;;;;;17.77;10.70;;;6.10;64.50;;;;;;5044326;28;20021;-79
2022/03/03 08:56:25;;;;;;;14.50;10.00;;;6.10;64.50;;;;;;5029633;28;20084;-79
2022/03/03 08:58:52;;;;;;;14.13;9.38;;;6.10;64.70;;;;;;5025463;28;20100;-79
2022/03/03 09:01:18;;;;;;;19.23;10.10;;;6.40;64.70;;;;;;5041605;28;20033;-81
2022/03/03 09:03:44;;;;;;;18.33;10.65;;;6.40;63.50;;;;;;5024971;28;20021;-80
2022/03/03 09:06:15;;;;;;;19.67;9.27;;;6.60;62.70;;;;;;5026759;28;20029;-80
2022/03/03 09:08:41;;;;;;;15.15;9.38;;;6.90;63.00;;;;;;5026601;28;20081;-80
2022/03/03 09:11:07;;;;;;;16.23;10.18;;;7.10;62.30;;;;;;5011888;28;20154;-82
2022/03/03 09:13:34;;;;;;;12.85;9.38;;;7.20;62.10;;;;;;5045297;28;20052;-79
2022/03/03 09:16:00;;;;;;;13.60;9.85;;;7.20;61.60;;;;;;5046047;28;20032;-80
2022/03/03 09:18:26;;;;;;;14.68;9.15;;;7.30;61.50;;;;;;5047284;28;20044;-80
2022/03/03 09:20:52;;;;;;;17.38;10.27;;;7.40;61.40;;;;;;5050087;28;20025;-79
2022/03/03 09:23:18;;;;;;;16.02;10.00;;;7.60;60.70;;;;;;5029257;28;20033;-79
2022/03/03 09:25:44;;;;;;;15.70;10.27;;;7.70;59.50;;;;;;5024590;28;20029;-81
2022/03/03 09:28:10;;;;;;;15.07;9.68;;;7.80;58.60;;;;;;5032760;28;20049;-80
2022/03/03 09:30:37;;;;;;;20.73;11.27;;;8.00;58.20;;;;;;5027245;28;20450;-79
2022/03/03 09:33:04;;;;;;;22.15;11.57;;;8.00;57.40;;;;;;5026420;28;20037;-79
2022/03/03 09:35:30;;;;;;;18.02;11.23;;;8.00;56.80;;;;;;5026819;28;20355;-80
2022/03/03 09:37:57;;;;;;;20.80;11.77;;;8.20;56.90;;;;;;5027142;28;20025;-79
2022/03/03 09:40:25;;;;;;;16.83;10.82;;;8.20;56.70;;;;;;5027247;28;20026;-80
2022/03/03 09:43:00;;;;;;;18.67;11.90;;;8.20;56.50;;;;;;5027805;28;20017;-79
2022/03/03 09:45:27;;;;;;;19.23;12.65;;;8.30;56.90;;;;;;5029311;28;20021;-78
2022/03/03 09:47:54;;;;;;;18.52;12.38;;;8.40;56.80;;;;;;5028009;28;20025;-80
2022/03/03 09:50:22;;;;;;;20.45;12.48;;;8.50;56.40;;;;;;5026694;28;20448;-79
2022/03/03 09:52:48;;;;;;;20.73;12.25;;;8.50;56.50;;;;;;5029840;28;20017;-80
2022/03/03 09:55:14;;;;;;;20.45;13.05;;;8.60;56.80;;;;;;5009781;28;20074;-80
2022/03/03 09:57:40;;;;;;;18.20;12.23;;;8.60;55.70;;;;;;5053408;28;20029;-79
2022/03/03 10:00:08;;;;;;;22.80;12.27;;;8.60;55.80;;;;;;5048390;28;20097;-79
2022/03/03 10:03:08;;;;;;;21.08;12.80;;;8.50;55.60;;;;;;5028731;28;20034;-80
2022/03/03 10:05:38;;;;;;;21.42;12.38;;;8.60;55.40;;;;;;5030326;28;20470;-80
2022/03/03 10:08:09;;;;;;;19.05;11.93;;;8.60;54.50;;;;;;5029924;28;20048;-79
2022/03/03 10:10:48;;;;;;;14.98;10.88;;;8.60;54.90;;;;;;5028629;28;20037;-79
2022/03/03 10:13:16;;;;;;;21.75;13.07;;;9.00;54.60;;;;;;5031279;28;20088;-81
2022/03/03 10:15:53;;;;;;;22.52;12.85;;;9.10;53.10;;;;;;5055949;28;20030;-80
2022/03/03 10:18:20;;;;;;;20.40;12.23;;;9.00;53.10;;;;;;5036225;28;20040;-81
2022/03/03 10:20:53;;;;;;;20.65;12.32;;;9.00;54.40;;;;;;5036410;28;20021;-79
2022/03/03 10:23:27;;;;;;;19.50;11.23;;;9.10;53.80;;;;;;5037019;28;20010;-81
2022/03/03 10:25:55;;;;;;;18.08;11.10;;;9.10;53.70;;;;;;5033011;28;20026;-81
2022/03/03 10:28:26;;;;;;;13.27;9.45;;;9.30;52.00;;;;;;5020207;28;20077;-78
2022/03/03 10:31:01;;;;;;;18.67;10.68;;;9.60;49.90;;;;;;5051774;28;20025;-80
2022/03/03 10:33:29;;;;;;;13.70;9.57;;;9.60;48.40;;;;;;5068332;28;20235;-80
2022/03/03 10:36:31;;;;;;;17.63;10.23;;;9.50;49.50;;;;;;5064461;28;20082;-78
2022/03/03 10:39:03;;;;;;;13.35;9.50;;;9.60;50.10;;;;;;5055590;28;20056;-79
2022/03/03 10:41:42;;;;;;;15.85;10.02;;;9.60;49.80;;;;;;5028941;28;20071;-80
2022/03/03 10:44:20;;;;;;;13.50;8.88;;;9.70;48.80;;;;;;5025908;28;20136;-80
2022/03/03 10:47:04;;;;;;;12.65;8.98;;;9.80;47.10;;;;;;5029492;28;20031;-80
2022/03/03 10:49:31;;;;;;;12.60;8.73;;;9.60;46.60;;;;;;5040119;28;20095;-84
2022/03/03 10:52:17;;;;;;;11.40;8.40;;;9.60;45.50;;;;;;5024106;28;20042;-83
2022/03/03 10:55:11;;;;;;;12.05;8.88;;;9.60;45.40;;;;;;5040358;28;20028;-81
2022/03/03 10:57:44;;;;;;;9.70;7.72;;;9.70;45.70;;;;;;5034800;28;20105;-81
2022/03/03 11:00:24;;;;;;;11.82;8.50;;;9.90;45.90;;;;;;5071736;28;20044;-82
2022/03/03 11:02:59;;;;;;;10.15;7.50;;;10.20;45.80;;;;;;5067689;28;20107;-80
2022/03/03 11:05:30;;;;;;;10.98;8.15;;;10.30;45.70;;;;;;5060807;28;20551;-81
2022/03/03 11:07:58;;;;;;;12.32;8.20;;;10.40;44.40;;;;;;5028859;28;20375;-79
2022/03/03 11:10:26;;;;;;;12.88;9.10;;;10.60;43.70;;;;;;5027897;28;20025;-80
2022/03/03 11:12:53;;;;;;;15.43;9.35;;;10.60;42.80;;;;;;5029918;28;20064;-79
2022/03/03 11:15:21;;;;;;;19.48;10.57;;;10.70;42.40;;;;;;5044314;28;20079;-79
2022/03/03 11:17:49;;;;;;;12.50;8.80;;;10.60;42.10;;;;;;5047859;22;20119;-80
2022/03/03 11:20:17;;;;;;;12.27;8.23;;;10.60;42.30;;;;;;5037851;28;20459;-80
2022/03/03 11:22:44;;;;;;;9.93;8.00;;;10.60;42.30;;;;;;5032203;28;20045;-80
2022/03/03 11:25:29;;;;;;;15.13;8.60;;;10.70;42.40;;;;;;5037306;28;20021;-80
2022/03/03 11:28:09;;;;;;;12.20;8.45;;;10.70;42.30;;;;;;5067400;28;20045;-81
2022/03/03 11:30:36;;;;;;;14.45;9.43;;;10.60;42.70;;;;;;5055143;28;20017;-80
2022/03/03 11:33:24;;;;;;;11.93;9.15;;;10.60;42.60;;;;;;5055033;28;20085;-80
2022/03/03 11:35:57;;;;;;;12.45;8.77;;;10.80;42.60;;;;;;5037630;28;20025;-79
2022/03/03 11:38:26;;;;;;;12.88;8.68;;;10.80;42.60;;;;;;5051573;28;20037;-79
2022/03/03 11:41:00;;;;;;;15.38;9.52;;;10.60;42.20;;;;;;5035120;28;20065;-79
2022/03/03 11:43:27;;;;;;;16.15;10.32;;;10.50;42.30;;;;;;5039829;28;20029;-79
2022/03/03 11:45:56;;;;;;;13.70;9.13;;;10.50;42.60;;;;;;5054814;28;20049;-78
2022/03/03 11:48:23;;;;;;;11.45;8.63;;;10.40;42.80;;;;;;5047225;28;20029;-79
2022/03/03 11:50:51;;;;;;;13.35;8.60;;;10.50;43.20;;;;;;5046105;28;20152;-80
2022/03/03 11:53:24;;;;;;;13.13;9.40;;;10.60;43.10;;;;;;5043388;28;20078;-82
2022/03/03 11:55:58;;;;;;;13.38;8.80;;;10.50;42.30;;;;;;5045644;28;20433;-81
2022/03/03 11:58:29;;;;;;;12.57;9.48;;;10.40;42.00;;;;;;5029473;28;20072;-84
2022/03/03 12:00:57;;;;;;;14.40;10.10;;;10.20;42.60;;;;;;5030175;28;20044;-78
2022/03/03 12:03:23;;;;;;;13.05;8.98;;;10.20;42.40;;;;;;5033710;28;20257;-79
2022/03/03 12:06:02;;;;;;;13.38;9.38;;;10.20;41.70;;;;;;5045796;28;20068;-79
2022/03/03 12:08:29;;;;;;;13.23;8.32;;;10.40;41.50;;;;;;5062854;28;20021;-79
2022/03/03 12:11:15;;;;;;;15.63;10.35;;;10.40;40.90;;;;;;5048941;28;20052;-79
2022/03/03 12:13:41;;;;;;;18.10;9.70;;;10.40;41.00;;;;;;5045736;28;20018;-79
2022/03/03 12:16:20;;;;;;;15.20;9.57;;;10.70;41.20;;;;;;5030015;28;20033;-78
2022/03/03 12:19:06;;;;;;;12.75;8.65;;;10.70;40.40;;;;;;5020310;28;20056;-79
2022/03/03 12:21:41;;;;;;;15.80;8.88;;;10.70;40.90;;;;;;5033444;28;20026;-79
2022/03/03 12:24:13;;;;;;;11.55;8.00;;;10.80;40.60;;;;;;5032860;28;20517;-78
2022/03/03 12:26:58;;;;;;;16.33;8.25;;;10.80;40.70;;;;;;5033344;28;20067;-79
2022/03/03 12:29:39;;;;;;;10.98;8.70;;;10.70;40.30;;;;;;5035193;28;20352;-78
2022/03/03 12:32:24;;;;;;;12.55;8.60;;;10.70;39.50;;;;;;5034600;28;20058;-78
2022/03/03 12:34:56;;;;;;;11.52;8.23;;;10.80;39.50;;;;;;5040931;28;20014;-78
2022/03/03 12:37:22;;;;;;;;;;;10.70;39.80;;;;;;5053216;28;20025;-78
2022/03/03 12:39:49;;;;;;;14.93;8.60;;;10.60;40.20;;;;;;5051965;28;19905;-78
2022/03/03 12:42:18;;;;;;;12.70;8.45;;;10.70;40.30;;;;;;5026164;28;20363;-77
2022/03/03 12:44:50;;;;;;;11.25;8.23;;;10.70;39.90;;;;;;5029055;28;20014;-77
2022/03/03 12:47:16;;;;;;;15.68;8.60;;;10.70;39.20;;;;;;5023008;28;20529;-78
2022/03/03 12:49:44;;;;;;;11.13;7.85;;;10.70;39.00;;;;;;5041008;28;20026;-78